Avoca, Arkansas
Current Conditions -  °F | °C
As of 7:57 PM on Wednesday 26 Nov 2014 (Local Time) from KROG Reporting Station
Clear Clear  
Wind Chill: 27°   Ceiling: Unl
Heat Index: 37°   Visibility: 10mi
Dew Point: 25°   Wind: 18mph
Humidity: 62%   Direction: 320°NW
Pressure: 30.25"   Gusts: NA
Location:  36.4°N, 94.07°W
Report Text: KROG 270157Z AUTO 32016KT 10SM CLR 03/M04 A3025 RMK AO2 PK WND 32026/0139 SLP249 T00281039 TSNO
Loading
Personal Weather Stations






























Interactive Weather Map New forecast layout! Learn more

10-Day Weather Forecast

Advertisements
Track Severe Weather on mobile